sensor_id;sensor_type;location;lat;lon;timestamp;P1;durP1;ratioP1;P2;durP2;ratioP2
6987;SDS011;3534;49.960;8.018;2023-03-12T00:01:47;10.33;;;5.83;;
6987;SDS011;3534;49.960;8.018;2023-03-12T00:04:15;5.37;;;3.80;;
6987;SDS011;3534;49.960;8.018;2023-03-12T00:06:42;7.03;;;3.50;;
6987;SDS011;3534;49.960;8.018;2023-03-12T00:09:09;6.40;;;3.80;;
6987;SDS011;3534;49.960;8.018;2023-03-12T00:11:35;8.20;;;4.30;;
6987;SDS011;3534;49.960;8.018;2023-03-12T00:14:02;10.60;;;5.10;;
6987;SDS011;3534;49.960;8.018;2023-03-12T00:16:29;6.63;;;4.83;;
6987;SDS011;3534;49.960;8.018;2023-03-12T00:18:55;8.47;;;4.97;;
6987;SDS011;3534;49.960;8.018;2023-03-12T00:21:23;10.53;;;4.80;;
6987;SDS011;3534;49.960;8.018;2023-03-12T00:23:51;10.53;;;5.67;;
6987;SDS011;3534;49.960;8.018;2023-03-12T00:26:18;11.73;;;5.13;;
6987;SDS011;3534;49.960;8.018;2023-03-12T00:28:46;10.20;;;5.40;;
6987;SDS011;3534;49.960;8.018;2023-03-12T00:31:14;7.73;;;4.97;;
6987;SDS011;3534;49.960;8.018;2023-03-12T00:33:43;10.77;;;5.60;;
6987;SDS011;3534;49.960;8.018;2023-03-12T00:36:10;9.87;;;5.47;;
6987;SDS011;3534;49.960;8.018;2023-03-12T00:38:38;12.93;;;6.97;;
6987;SDS011;3534;49.960;8.018;2023-03-12T00:41:05;8.03;;;5.90;;
6987;SDS011;3534;49.960;8.018;2023-03-12T00:43:32;8.57;;;5.10;;
6987;SDS011;3534;49.960;8.018;2023-03-12T00:45:58;13.20;;;6.13;;
6987;SDS011;3534;49.960;8.018;2023-03-12T00:48:25;10.63;;;5.70;;
6987;SDS011;3534;49.960;8.018;2023-03-12T00:50:52;17.50;;;6.00;;
6987;SDS011;3534;49.960;8.018;2023-03-12T00:53:18;11.13;;;5.90;;
6987;SDS011;3534;49.960;8.018;2023-03-12T00:55:46;13.07;;;7.20;;
6987;SDS011;3534;49.960;8.018;2023-03-12T00:58:13;20.90;;;8.63;;
6987;SDS011;3534;49.960;8.018;2023-03-12T01:00:40;22.10;;;7.93;;
6987;SDS011;3534;49.960;8.018;2023-03-12T01:03:06;13.63;;;7.10;;
6987;SDS011;3534;49.960;8.018;2023-03-12T01:05:33;13.60;;;7.10;;
6987;SDS011;3534;49.960;8.018;2023-03-12T01:08:01;12.10;;;5.80;;
6987;SDS011;3534;49.960;8.018;2023-03-12T01:10:29;13.50;;;5.00;;
6987;SDS011;3534;49.960;8.018;2023-03-12T01:12:57;15.33;;;6.00;;
6987;SDS011;3534;49.960;8.018;2023-03-12T01:15:24;9.30;;;5.10;;
6987;SDS011;3534;49.960;8.018;2023-03-12T01:17:51;12.67;;;5.73;;
6987;SDS011;3534;49.960;8.018;2023-03-12T01:20:18;7.87;;;5.13;;
6987;SDS011;3534;49.960;8.018;2023-03-12T01:22:44;9.93;;;5.57;;
6987;SDS011;3534;49.960;8.018;2023-03-12T01:25:11;9.57;;;5.10;;
6987;SDS011;3534;49.960;8.018;2023-03-12T01:27:38;9.17;;;5.27;;
6987;SDS011;3534;49.960;8.018;2023-03-12T01:30:07;10.40;;;5.57;;
6987;SDS011;3534;49.960;8.018;2023-03-12T01:32:35;12.10;;;5.77;;
6987;SDS011;3534;49.960;8.018;2023-03-12T01:35:02;8.73;;;5.07;;
6987;SDS011;3534;49.960;8.018;2023-03-12T01:37:28;8.90;;;5.00;;
6987;SDS011;3534;49.960;8.018;2023-03-12T01:39:56;9.37;;;5.47;;
6987;SDS011;3534;49.960;8.018;2023-03-12T01:42:23;6.67;;;5.27;;
6987;SDS011;3534;49.960;8.018;2023-03-12T01:44:51;7.90;;;4.77;;
6987;SDS011;3534;49.960;8.018;2023-03-12T01:47:21;7.60;;;4.43;;
6987;SDS011;3534;49.960;8.018;2023-03-12T01:49:49;6.73;;;4.27;;
6987;SDS011;3534;49.960;8.018;2023-03-12T01:52:17;5.20;;;4.30;;
6987;SDS011;3534;49.960;8.018;2023-03-12T01:54:48;5.80;;;4.60;;
6987;SDS011;3534;49.960;8.018;2023-03-12T01:57:19;4.83;;;4.33;;
6987;SDS011;3534;49.960;8.018;2023-03-12T01:59:49;19.43;;;4.53;;
6987;SDS011;3534;49.960;8.018;2023-03-12T02:02:18;5.20;;;4.17;;
6987;SDS011;3534;49.960;8.018;2023-03-12T02:04:52;8.43;;;3.70;;
6987;SDS011;3534;49.960;8.018;2023-03-12T02:07:36;5.20;;;4.07;;
6987;SDS011;3534;49.960;8.018;2023-03-12T02:10:03;6.10;;;3.73;;
6987;SDS011;3534;49.960;8.018;2023-03-12T02:12:30;9.27;;;3.83;;
6987;SDS011;3534;49.960;8.018;2023-03-12T02:14:57;8.40;;;4.53;;
6987;SDS011;3534;49.960;8.018;2023-03-12T02:17:24;5.53;;;4.13;;
6987;SDS011;3534;49.960;8.018;2023-03-12T02:19:54;8.03;;;4.97;;
6987;SDS011;3534;49.960;8.018;2023-03-12T02:22:25;13.60;;;5.00;;
6987;SDS011;3534;49.960;8.018;2023-03-12T02:24:55;7.10;;;4.43;;
6987;SDS011;3534;49.960;8.018;2023-03-12T02:27:28;8.57;;;4.37;;
6987;SDS011;3534;49.960;8.018;2023-03-12T02:29:56;6.73;;;4.20;;
6987;SDS011;3534;49.960;8.018;2023-03-12T02:32:25;7.63;;;4.47;;
6987;SDS011;3534;49.960;8.018;2023-03-12T02:34:54;9.37;;;4.77;;
6987;SDS011;3534;49.960;8.018;2023-03-12T02:37:21;10.47;;;4.43;;
6987;SDS011;3534;49.960;8.018;2023-03-12T02:39:49;7.73;;;4.80;;
6987;SDS011;3534;49.960;8.018;2023-03-12T02:42:20;6.40;;;4.47;;
6987;SDS011;3534;49.960;8.018;2023-03-12T02:44:50;7.33;;;4.57;;
6987;SDS011;3534;49.960;8.018;2023-03-12T02:47:16;6.30;;;4.90;;
6987;SDS011;3534;49.960;8.018;2023-03-12T02:49:43;7.53;;;5.10;;
6987;SDS011;3534;49.960;8.018;2023-03-12T02:52:10;8.10;;;5.87;;
6987;SDS011;3534;49.960;8.018;2023-03-12T02:54:37;9.47;;;5.10;;
6987;SDS011;3534;49.960;8.018;2023-03-12T02:57:03;10.47;;;4.90;;
6987;SDS011;3534;49.960;8.018;2023-03-12T02:59:30;5.10;;;4.50;;
6987;SDS011;3534;49.960;8.018;2023-03-12T03:01:58;12.50;;;5.10;;
6987;SDS011;3534;49.960;8.018;2023-03-12T03:04:26;8.80;;;5.97;;
6987;SDS011;3534;49.960;8.018;2023-03-12T03:06:54;6.67;;;4.63;;
6987;SDS011;3534;49.960;8.018;2023-03-12T03:09:21;9.20;;;5.20;;
6987;SDS011;3534;49.960;8.018;2023-03-12T03:11:48;10.60;;;5.43;;
6987;SDS011;3534;49.960;8.018;2023-03-12T03:14:15;7.17;;;4.80;;
6987;SDS011;3534;49.960;8.018;2023-03-12T03:16:42;9.00;;;5.07;;
6987;SDS011;3534;49.960;8.018;2023-03-12T03:19:10;6.80;;;4.70;;
6987;SDS011;3534;49.960;8.018;2023-03-12T03:21:36;9.30;;;4.90;;
6987;SDS011;3534;49.960;8.018;2023-03-12T03:24:03;10.83;;;5.40;;
6987;SDS011;3534;49.960;8.018;2023-03-12T03:26:31;10.50;;;5.23;;
6987;SDS011;3534;49.960;8.018;2023-03-12T03:28:57;8.50;;;4.87;;
6987;SDS011;3534;49.960;8.018;2023-03-12T03:31:24;9.80;;;5.83;;
6987;SDS011;3534;49.960;8.018;2023-03-12T03:33:51;7.37;;;4.50;;
6987;SDS011;3534;49.960;8.018;2023-03-12T03:36:19;4.83;;;4.20;;
6987;SDS011;3534;49.960;8.018;2023-03-12T03:38:47;8.10;;;4.83;;
6987;SDS011;3534;49.960;8.018;2023-03-12T03:41:14;8.50;;;4.47;;
6987;SDS011;3534;49.960;8.018;2023-03-12T03:43:41;6.60;;;4.50;;
6987;SDS011;3534;49.960;8.018;2023-03-12T03:46:09;9.37;;;5.07;;
6987;SDS011;3534;49.960;8.018;2023-03-12T03:48:36;9.50;;;5.50;;
6987;SDS011;3534;49.960;8.018;2023-03-12T03:51:04;8.03;;;4.77;;
6987;SDS011;3534;49.960;8.018;2023-03-12T03:53:33;9.53;;;5.40;;
6987;SDS011;3534;49.960;8.018;2023-03-12T03:56:03;7.07;;;5.27;;
6987;SDS011;3534;49.960;8.018;2023-03-12T03:58:31;12.47;;;5.67;;
6987;SDS011;3534;49.960;8.018;2023-03-12T04:00:58;9.00;;;6.10;;
6987;SDS011;3534;49.960;8.018;2023-03-12T04:03:24;9.63;;;5.40;;
6987;SDS011;3534;49.960;8.018;2023-03-12T04:05:52;8.70;;;4.77;;
6987;SDS011;3534;49.960;8.018;2023-03-12T04:08:20;12.07;;;5.03;;
6987;SDS011;3534;49.960;8.018;2023-03-12T04:10:48;6.60;;;4.80;;
6987;SDS011;3534;49.960;8.018;2023-03-12T04:13:14;7.90;;;5.30;;
6987;SDS011;3534;49.960;8.018;2023-03-12T04:15:44;6.53;;;4.40;;
6987;SDS011;3534;49.960;8.018;2023-03-12T04:18:11;10.73;;;5.90;;
6987;SDS011;3534;49.960;8.018;2023-03-12T04:20:38;8.93;;;5.43;;
6987;SDS011;3534;49.960;8.018;2023-03-12T04:23:05;8.37;;;5.50;;
6987;SDS011;3534;49.960;8.018;2023-03-12T04:25:31;10.30;;;5.07;;
6987;SDS011;3534;49.960;8.018;2023-03-12T04:27:59;6.27;;;5.17;;
6987;SDS011;3534;49.960;8.018;2023-03-12T04:30:26;10.03;;;5.33;;
6987;SDS011;3534;49.960;8.018;2023-03-12T04:32:53;10.07;;;5.07;;
6987;SDS011;3534;49.960;8.018;2023-03-12T04:35:20;7.20;;;5.00;;
6987;SDS011;3534;49.960;8.018;2023-03-12T04:37:48;12.70;;;4.90;;
6987;SDS011;3534;49.960;8.018;2023-03-12T04:40:15;15.17;;;6.50;;
6987;SDS011;3534;49.960;8.018;2023-03-12T04:42:44;9.40;;;6.00;;
6987;SDS011;3534;49.960;8.018;2023-03-12T04:45:12;6.07;;;4.53;;
6987;SDS011;3534;49.960;8.018;2023-03-12T04:47:38;9.20;;;5.27;;
6987;SDS011;3534;49.960;8.018;2023-03-12T04:50:06;10.17;;;6.30;;
6987;SDS011;3534;49.960;8.018;2023-03-12T04:52:33;9.60;;;5.30;;
6987;SDS011;3534;49.960;8.018;2023-03-12T04:54:59;8.50;;;5.57;;
6987;SDS011;3534;49.960;8.018;2023-03-12T04:57:26;8.77;;;5.33;;
6987;SDS011;3534;49.960;8.018;2023-03-12T04:59:53;11.83;;;6.40;;
6987;SDS011;3534;49.960;8.018;2023-03-12T05:02:21;8.80;;;5.77;;
6987;SDS011;3534;49.960;8.018;2023-03-12T05:04:47;7.67;;;5.93;;
6987;SDS011;3534;49.960;8.018;2023-03-12T05:07:14;11.63;;;6.27;;
6987;SDS011;3534;49.960;8.018;2023-03-12T05:09:41;11.80;;;5.20;;
6987;SDS011;3534;49.960;8.018;2023-03-12T05:12:10;11.20;;;6.30;;
6987;SDS011;3534;49.960;8.018;2023-03-12T05:14:36;7.83;;;5.57;;
6987;SDS011;3534;49.960;8.018;2023-03-12T05:17:04;9.77;;;5.37;;
6987;SDS011;3534;49.960;8.018;2023-03-12T05:19:32;9.60;;;6.00;;
6987;SDS011;3534;49.960;8.018;2023-03-12T05:21:59;11.70;;;6.00;;
6987;SDS011;3534;49.960;8.018;2023-03-12T05:24:26;8.40;;;5.97;;
6987;SDS011;3534;49.960;8.018;2023-03-12T05:26:53;7.67;;;5.30;;
6987;SDS011;3534;49.960;8.018;2023-03-12T05:29:19;9.13;;;5.53;;
6987;SDS011;3534;49.960;8.018;2023-03-12T05:31:46;10.07;;;5.73;;
6987;SDS011;3534;49.960;8.018;2023-03-12T05:34:13;6.90;;;5.40;;
6987;SDS011;3534;49.960;8.018;2023-03-12T05:36:42;8.57;;;6.20;;
6987;SDS011;3534;49.960;8.018;2023-03-12T05:39:09;13.30;;;6.37;;
6987;SDS011;3534;49.960;8.018;2023-03-12T05:41:35;12.03;;;6.37;;
6987;SDS011;3534;49.960;8.018;2023-03-12T05:44:02;9.20;;;5.70;;
6987;SDS011;3534;49.960;8.018;2023-03-12T05:46:28;6.60;;;5.10;;
6987;SDS011;3534;49.960;8.018;2023-03-12T05:48:55;11.30;;;5.53;;
6987;SDS011;3534;49.960;8.018;2023-03-12T05:51:22;12.67;;;5.47;;
6987;SDS011;3534;49.960;8.018;2023-03-12T05:53:50;7.77;;;5.13;;
6987;SDS011;3534;49.960;8.018;2023-03-12T05:56:16;17.87;;;6.07;;
6987;SDS011;3534;49.960;8.018;2023-03-12T05:58:43;9.60;;;5.47;;
6987;SDS011;3534;49.960;8.018;2023-03-12T06:01:13;10.63;;;5.57;;
6987;SDS011;3534;49.960;8.018;2023-03-12T06:03:41;15.87;;;6.20;;
6987;SDS011;3534;49.960;8.018;2023-03-12T06:06:07;12.30;;;6.50;;
6987;SDS011;3534;49.960;8.018;2023-03-12T06:08:34;8.73;;;5.63;;
6987;SDS011;3534;49.960;8.018;2023-03-12T06:11:02;8.73;;;5.67;;
6987;SDS011;3534;49.960;8.018;2023-03-12T06:13:29;10.17;;;5.53;;
6987;SDS011;3534;49.960;8.018;2023-03-12T06:16:00;7.10;;;5.57;;
6987;SDS011;3534;49.960;8.018;2023-03-12T06:18:28;10.00;;;5.60;;
6987;SDS011;3534;49.960;8.018;2023-03-12T06:20:55;7.43;;;5.03;;
6987;SDS011;3534;49.960;8.018;2023-03-12T06:23:21;8.80;;;6.10;;
6987;SDS011;3534;49.960;8.018;2023-03-12T06:25:48;8.67;;;5.60;;
6987;SDS011;3534;49.960;8.018;2023-03-12T06:28:16;17.43;;;5.00;;
6987;SDS011;3534;49.960;8.018;2023-03-12T06:30:42;7.90;;;5.10;;
6987;SDS011;3534;49.960;8.018;2023-03-12T06:33:10;10.20;;;5.90;;
6987;SDS011;3534;49.960;8.018;2023-03-12T06:35:37;9.10;;;5.30;;
6987;SDS011;3534;49.960;8.018;2023-03-12T06:38:03;9.37;;;5.00;;
6987;SDS011;3534;49.960;8.018;2023-03-12T06:40:30;8.67;;;5.87;;
6987;SDS011;3534;49.960;8.018;2023-03-12T06:42:57;8.20;;;5.63;;
6987;SDS011;3534;49.960;8.018;2023-03-12T06:45:24;8.20;;;6.33;;
6987;SDS011;3534;49.960;8.018;2023-03-12T06:47:51;8.23;;;5.00;;
6987;SDS011;3534;49.960;8.018;2023-03-12T06:50:18;10.30;;;6.27;;
6987;SDS011;3534;49.960;8.018;2023-03-12T06:52:44;11.50;;;5.80;;
6987;SDS011;3534;49.960;8.018;2023-03-12T06:55:11;8.00;;;5.40;;
6987;SDS011;3534;49.960;8.018;2023-03-12T06:57:37;7.33;;;5.20;;
6987;SDS011;3534;49.960;8.018;2023-03-12T07:00:04;6.10;;;5.10;;
6987;SDS011;3534;49.960;8.018;2023-03-12T07:02:34;9.03;;;4.70;;
6987;SDS011;3534;49.960;8.018;2023-03-12T07:05:00;8.07;;;5.03;;
6987;SDS011;3534;49.960;8.018;2023-03-12T07:07:27;11.40;;;5.00;;
6987;SDS011;3534;49.960;8.018;2023-03-12T07:09:54;7.67;;;5.57;;
6987;SDS011;3534;49.960;8.018;2023-03-12T07:12:20;8.77;;;5.93;;
6987;SDS011;3534;49.960;8.018;2023-03-12T07:14:47;9.03;;;5.70;;
6987;SDS011;3534;49.960;8.018;2023-03-12T07:17:13;9.37;;;5.63;;
6987;SDS011;3534;49.960;8.018;2023-03-12T07:19:41;9.70;;;5.20;;
6987;SDS011;3534;49.960;8.018;2023-03-12T07:22:08;9.40;;;6.07;;
6987;SDS011;3534;49.960;8.018;2023-03-12T07:24:35;9.43;;;6.13;;
6987;SDS011;3534;49.960;8.018;2023-03-12T07:27:01;7.37;;;5.20;;
6987;SDS011;3534;49.960;8.018;2023-03-12T07:29:29;11.87;;;5.20;;
6987;SDS011;3534;49.960;8.018;2023-03-12T07:31:55;10.70;;;5.90;;
6987;SDS011;3534;49.960;8.018;2023-03-12T07:34:22;8.30;;;5.47;;
6987;SDS011;3534;49.960;8.018;2023-03-12T07:36:50;5.20;;;4.30;;
6987;SDS011;3534;49.960;8.018;2023-03-12T07:39:16;7.80;;;4.43;;
6987;SDS011;3534;49.960;8.018;2023-03-12T07:41:44;5.13;;;4.07;;
6987;SDS011;3534;49.960;8.018;2023-03-12T07:44:10;8.57;;;5.17;;
6987;SDS011;3534;49.960;8.018;2023-03-12T07:46:37;8.80;;;5.17;;
6987;SDS011;3534;49.960;8.018;2023-03-12T07:49:04;7.70;;;5.37;;
6987;SDS011;3534;49.960;8.018;2023-03-12T07:51:30;17.77;;;5.73;;
6987;SDS011;3534;49.960;8.018;2023-03-12T07:53:58;13.40;;;6.00;;
6987;SDS011;3534;49.960;8.018;2023-03-12T07:56:25;8.37;;;4.93;;
6987;SDS011;3534;49.960;8.018;2023-03-12T07:58:52;6.57;;;5.27;;
6987;SDS011;3534;49.960;8.018;2023-03-12T08:01:19;10.73;;;5.77;;
6987;SDS011;3534;49.960;8.018;2023-03-12T08:03:45;9.23;;;6.27;;
6987;SDS011;3534;49.960;8.018;2023-03-12T08:06:12;14.80;;;7.07;;
6987;SDS011;3534;49.960;8.018;2023-03-12T08:08:39;10.47;;;6.50;;
6987;SDS011;3534;49.960;8.018;2023-03-12T08:11:07;7.77;;;5.47;;
6987;SDS011;3534;49.960;8.018;2023-03-12T08:13:34;7.63;;;5.77;;
6987;SDS011;3534;49.960;8.018;2023-03-12T08:16:01;10.20;;;6.57;;
6987;SDS011;3534;49.960;8.018;2023-03-12T08:18:28;10.17;;;6.63;;
6987;SDS011;3534;49.960;8.018;2023-03-12T08:20:54;10.33;;;6.50;;
6987;SDS011;3534;49.960;8.018;2023-03-12T08:23:22;9.80;;;6.00;;
6987;SDS011;3534;49.960;8.018;2023-03-12T08:25:49;8.80;;;7.40;;
6987;SDS011;3534;49.960;8.018;2023-03-12T08:28:18;12.03;;;7.03;;
6987;SDS011;3534;49.960;8.018;2023-03-12T08:30:46;11.57;;;6.80;;
6987;SDS011;3534;49.960;8.018;2023-03-12T08:33:14;13.90;;;7.90;;
6987;SDS011;3534;49.960;8.018;2023-03-12T08:35:41;8.67;;;6.67;;
6987;SDS011;3534;49.960;8.018;2023-03-12T08:38:08;10.30;;;7.40;;
6987;SDS011;3534;49.960;8.018;2023-03-12T08:40:35;7.70;;;6.90;;
6987;SDS011;3534;49.960;8.018;2023-03-12T08:43:02;15.93;;;9.73;;
6987;SDS011;3534;49.960;8.018;2023-03-12T08:45:30;11.03;;;6.57;;
6987;SDS011;3534;49.960;8.018;2023-03-12T08:47:56;10.13;;;5.63;;
6987;SDS011;3534;49.960;8.018;2023-03-12T08:50:23;12.73;;;7.27;;
6987;SDS011;3534;49.960;8.018;2023-03-12T08:52:54;12.70;;;7.13;;
6987;SDS011;3534;49.960;8.018;2023-03-12T08:55:20;15.67;;;7.17;;
6987;SDS011;3534;49.960;8.018;2023-03-12T08:57:47;6.97;;;5.67;;
6987;SDS011;3534;49.960;8.018;2023-03-12T09:00:14;10.87;;;6.40;;
6987;SDS011;3534;49.960;8.018;2023-03-12T09:02:43;11.70;;;7.00;;
6987;SDS011;3534;49.960;8.018;2023-03-12T09:05:11;16.40;;;8.13;;
6987;SDS011;3534;49.960;8.018;2023-03-12T09:07:37;9.93;;;6.70;;
6987;SDS011;3534;49.960;8.018;2023-03-12T09:10:05;15.23;;;7.47;;
6987;SDS011;3534;49.960;8.018;2023-03-12T09:12:32;12.40;;;7.27;;
6987;SDS011;3534;49.960;8.018;2023-03-12T09:14:58;10.87;;;7.77;;
6987;SDS011;3534;49.960;8.018;2023-03-12T09:17:25;13.53;;;7.17;;
6987;SDS011;3534;49.960;8.018;2023-03-12T09:19:55;9.63;;;8.30;;
6987;SDS011;3534;49.960;8.018;2023-03-12T09:22:22;13.23;;;9.50;;
6987;SDS011;3534;49.960;8.018;2023-03-12T09:24:48;12.33;;;7.60;;
6987;SDS011;3534;49.960;8.018;2023-03-12T09:27:15;14.47;;;8.03;;
6987;SDS011;3534;49.960;8.018;2023-03-12T09:29:42;17.70;;;8.37;;
6987;SDS011;3534;49.960;8.018;2023-03-12T09:32:08;10.70;;;7.43;;
6987;SDS011;3534;49.960;8.018;2023-03-12T09:34:35;9.40;;;7.63;;
6987;SDS011;3534;49.960;8.018;2023-03-12T09:37:03;15.10;;;8.60;;
6987;SDS011;3534;49.960;8.018;2023-03-12T09:39:30;15.50;;;8.73;;
6987;SDS011;3534;49.960;8.018;2023-03-12T09:41:56;17.20;;;8.30;;
6987;SDS011;3534;49.960;8.018;2023-03-12T09:44:25;14.30;;;9.07;;
6987;SDS011;3534;49.960;8.018;2023-03-12T09:47:00;13.30;;;9.43;;
6987;SDS011;3534;49.960;8.018;2023-03-12T09:49:31;11.53;;;9.27;;
6987;SDS011;3534;49.960;8.018;2023-03-12T09:52:01;13.80;;;8.87;;
6987;SDS011;3534;49.960;8.018;2023-03-12T09:54:35;14.00;;;9.30;;
6987;SDS011;3534;49.960;8.018;2023-03-12T09:57:08;12.53;;;10.20;;
6987;SDS011;3534;49.960;8.018;2023-03-12T09:59:37;16.20;;;11.30;;
6987;SDS011;3534;49.960;8.018;2023-03-12T10:02:05;16.90;;;10.80;;
6987;SDS011;3534;49.960;8.018;2023-03-12T10:04:49;12.50;;;9.20;;
6987;SDS011;3534;49.960;8.018;2023-03-12T10:07:24;13.60;;;9.00;;
6987;SDS011;3534;49.960;8.018;2023-03-12T10:10:09;18.87;;;9.97;;
6987;SDS011;3534;49.960;8.018;2023-03-12T10:13:06;13.30;;;9.27;;
6987;SDS011;3534;49.960;8.018;2023-03-12T10:15:54;17.93;;;11.30;;
6987;SDS011;3534;49.960;8.018;2023-03-12T10:18:35;16.33;;;10.47;;
6987;SDS011;3534;49.960;8.018;2023-03-12T10:21:15;18.83;;;10.20;;
6987;SDS011;3534;49.960;8.018;2023-03-12T10:23:52;15.10;;;10.67;;
6987;SDS011;3534;49.960;8.018;2023-03-12T10:26:29;15.60;;;11.00;;
6987;SDS011;3534;49.960;8.018;2023-03-12T10:29:00;23.00;;;11.73;;
6987;SDS011;3534;49.960;8.018;2023-03-12T10:31:33;16.40;;;9.53;;
6987;SDS011;3534;49.960;8.018;2023-03-12T10:34:02;15.50;;;11.00;;
6987;SDS011;3534;49.960;8.018;2023-03-12T10:36:40;14.90;;;11.27;;
6987;SDS011;3534;49.960;8.018;2023-03-12T10:39:11;19.83;;;10.43;;
6987;SDS011;3534;49.960;8.018;2023-03-12T10:41:40;14.13;;;10.80;;
6987;SDS011;3534;49.960;8.018;2023-03-12T10:44:10;16.40;;;10.50;;
6987;SDS011;3534;49.960;8.018;2023-03-12T10:49:33;17.87;;;11.50;;
6987;SDS011;3534;49.960;8.018;2023-03-12T10:52:02;16.67;;;12.17;;
6987;SDS011;3534;49.960;8.018;2023-03-12T10:54:33;14.63;;;8.10;;
6987;SDS011;3534;49.960;8.018;2023-03-12T10:57:02;61.40;;;27.17;;
6987;SDS011;3534;49.960;8.018;2023-03-12T10:59:30;26.40;;;13.23;;
6987;SDS011;3534;49.960;8.018;2023-03-12T11:01:58;29.57;;;19.60;;
6987;SDS011;3534;49.960;8.018;2023-03-12T11:04:26;35.17;;;20.03;;
6987;SDS011;3534;49.960;8.018;2023-03-12T11:10:02;14.70;;;10.27;;
6987;SDS011;3534;49.960;8.018;2023-03-12T11:12:39;15.20;;;10.90;;
6987;SDS011;3534;49.960;8.018;2023-03-12T11:15:19;19.47;;;12.20;;
6987;SDS011;3534;49.960;8.018;2023-03-12T11:17:47;18.80;;;13.47;;
6987;SDS011;3534;49.960;8.018;2023-03-12T11:20:17;15.33;;;9.33;;
6987;SDS011;3534;49.960;8.018;2023-03-12T11:22:51;16.03;;;9.17;;
6987;SDS011;3534;49.960;8.018;2023-03-12T11:25:23;18.27;;;8.97;;
6987;SDS011;3534;49.960;8.018;2023-03-12T11:27:52;35.00;;;18.80;;
6987;SDS011;3534;49.960;8.018;2023-03-12T11:30:22;14.43;;;8.37;;
6987;SDS011;3534;49.960;8.018;2023-03-12T11:32:52;30.57;;;16.17;;
6987;SDS011;3534;49.960;8.018;2023-03-12T11:35:21;12.07;;;8.93;;
6987;SDS011;3534;49.960;8.018;2023-03-12T11:37:59;21.67;;;11.77;;
6987;SDS011;3534;49.960;8.018;2023-03-12T11:40:36;18.03;;;11.40;;
6987;SDS011;3534;49.960;8.018;2023-03-12T11:43:23;16.57;;;9.60;;
6987;SDS011;3534;49.960;8.018;2023-03-12T11:46:02;8.87;;;7.70;;
6987;SDS011;3534;49.960;8.018;2023-03-12T11:48:39;14.23;;;7.60;;
6987;SDS011;3534;49.960;8.018;2023-03-12T11:51:17;8.30;;;7.10;;
6987;SDS011;3534;49.960;8.018;2023-03-12T11:53:59;14.47;;;10.67;;
6987;SDS011;3534;49.960;8.018;2023-03-12T11:56:43;14.53;;;9.57;;
6987;SDS011;3534;49.960;8.018;2023-03-12T11:59:14;13.60;;;9.00;;
6987;SDS011;3534;49.960;8.018;2023-03-12T12:01:55;14.30;;;8.90;;
6987;SDS011;3534;49.960;8.018;2023-03-12T12:04:31;10.37;;;8.47;;
6987;SDS011;3534;49.960;8.018;2023-03-12T12:07:12;14.43;;;8.47;;
6987;SDS011;3534;49.960;8.018;2023-03-12T12:09:49;11.37;;;8.00;;
6987;SDS011;3534;49.960;8.018;2023-03-12T12:12:29;10.10;;;8.97;;
6987;SDS011;3534;49.960;8.018;2023-03-12T12:15:09;12.20;;;9.30;;
6987;SDS011;3534;49.960;8.018;2023-03-12T12:17:47;8.67;;;7.20;;
6987;SDS011;3534;49.960;8.018;2023-03-12T12:20:25;9.57;;;8.20;;
6987;SDS011;3534;49.960;8.018;2023-03-12T12:23:01;12.40;;;8.90;;
6987;SDS011;3534;49.960;8.018;2023-03-12T12:25:45;11.70;;;8.67;;
6987;SDS011;3534;49.960;8.018;2023-03-12T12:31:36;9.87;;;6.57;;
6987;SDS011;3534;49.960;8.018;2023-03-12T12:37:04;9.93;;;6.87;;
6987;SDS011;3534;49.960;8.018;2023-03-12T12:39:44;13.33;;;11.00;;
6987;SDS011;3534;49.960;8.018;2023-03-12T12:42:15;9.13;;;7.43;;
6987;SDS011;3534;49.960;8.018;2023-03-12T12:44:48;9.87;;;7.70;;
6987;SDS011;3534;49.960;8.018;2023-03-12T12:47:30;9.60;;;6.67;;
6987;SDS011;3534;49.960;8.018;2023-03-12T12:50:02;12.10;;;7.70;;
6987;SDS011;3534;49.960;8.018;2023-03-12T12:52:29;13.93;;;8.07;;
6987;SDS011;3534;49.960;8.018;2023-03-12T12:54:58;10.77;;;6.97;;
6987;SDS011;3534;49.960;8.018;2023-03-12T12:57:34;7.63;;;6.83;;
6987;SDS011;3534;49.960;8.018;2023-03-12T13:00:12;8.70;;;6.53;;
6987;SDS011;3534;49.960;8.018;2023-03-12T13:02:54;10.90;;;7.50;;
6987;SDS011;3534;49.960;8.018;2023-03-12T13:05:24;12.37;;;6.73;;
6987;SDS011;3534;49.960;8.018;2023-03-12T13:07:52;11.00;;;8.00;;
6987;SDS011;3534;49.960;8.018;2023-03-12T13:10:42;11.10;;;7.20;;
6987;SDS011;3534;49.960;8.018;2023-03-12T13:13:17;14.27;;;8.17;;
6987;SDS011;3534;49.960;8.018;2023-03-12T13:15:47;15.50;;;7.50;;
6987;SDS011;3534;49.960;8.018;2023-03-12T13:18:21;12.90;;;7.97;;
6987;SDS011;3534;49.960;8.018;2023-03-12T13:21:04;8.17;;;7.10;;
6987;SDS011;3534;49.960;8.018;2023-03-12T13:23:40;10.93;;;8.70;;
6987;SDS011;3534;49.960;8.018;2023-03-12T13:26:17;15.83;;;8.57;;
6987;SDS011;3534;49.960;8.018;2023-03-12T13:28:56;12.77;;;8.97;;
6987;SDS011;3534;49.960;8.018;2023-03-12T13:31:36;11.53;;;8.57;;
6987;SDS011;3534;49.960;8.018;2023-03-12T13:40:38;10.90;;;7.80;;
6987;SDS011;3534;49.960;8.018;2023-03-12T13:46:26;10.27;;;7.70;;
6987;SDS011;3534;49.960;8.018;2023-03-12T13:49:16;9.00;;;7.00;;
6987;SDS011;3534;49.960;8.018;2023-03-12T13:51:46;12.50;;;8.70;;
6987;SDS011;3534;49.960;8.018;2023-03-12T13:54:21;15.10;;;8.27;;
6987;SDS011;3534;49.960;8.018;2023-03-12T13:56:56;16.33;;;8.80;;
6987;SDS011;3534;49.960;8.018;2023-03-12T13:59:26;15.73;;;10.87;;
6987;SDS011;3534;49.960;8.018;2023-03-12T14:01:56;19.30;;;14.67;;
6987;SDS011;3534;49.960;8.018;2023-03-12T14:04:35;14.50;;;9.60;;
6987;SDS011;3534;49.960;8.018;2023-03-12T14:07:09;19.20;;;8.27;;
6987;SDS011;3534;49.960;8.018;2023-03-12T14:10:01;10.93;;;7.93;;
6987;SDS011;3534;49.960;8.018;2023-03-12T14:12:39;12.33;;;7.80;;
6987;SDS011;3534;49.960;8.018;2023-03-12T14:15:14;11.20;;;7.60;;
6987;SDS011;3534;49.960;8.018;2023-03-12T14:17:53;12.50;;;8.27;;
6987;SDS011;3534;49.960;8.018;2023-03-12T14:20:23;12.57;;;8.80;;
6987;SDS011;3534;49.960;8.018;2023-03-12T14:22:51;16.63;;;12.83;;
6987;SDS011;3534;49.960;8.018;2023-03-12T14:25:23;17.60;;;13.77;;
6987;SDS011;3534;49.960;8.018;2023-03-12T14:27:57;11.67;;;8.47;;
6987;SDS011;3534;49.960;8.018;2023-03-12T14:30:29;14.80;;;9.90;;
6987;SDS011;3534;49.960;8.018;2023-03-12T14:33:04;24.93;;;10.63;;
6987;SDS011;3534;49.960;8.018;2023-03-12T14:35:35;15.87;;;9.87;;
6987;SDS011;3534;49.960;8.018;2023-03-12T14:38:09;10.70;;;8.77;;
6987;SDS011;3534;49.960;8.018;2023-03-12T14:40:40;9.97;;;7.87;;
6987;SDS011;3534;49.960;8.018;2023-03-12T14:43:21;13.50;;;8.87;;
6987;SDS011;3534;49.960;8.018;2023-03-12T14:45:50;14.30;;;8.20;;
6987;SDS011;3534;49.960;8.018;2023-03-12T14:48:19;12.13;;;7.50;;
6987;SDS011;3534;49.960;8.018;2023-03-12T14:50:48;12.90;;;10.17;;
6987;SDS011;3534;49.960;8.018;2023-03-12T14:53:18;12.83;;;8.57;;
6987;SDS011;3534;49.960;8.018;2023-03-12T14:55:56;12.27;;;9.23;;
6987;SDS011;3534;49.960;8.018;2023-03-12T14:58:24;12.67;;;9.30;;
6987;SDS011;3534;49.960;8.018;2023-03-12T15:00:55;16.63;;;8.80;;
6987;SDS011;3534;49.960;8.018;2023-03-12T15:03:23;10.80;;;8.57;;
6987;SDS011;3534;49.960;8.018;2023-03-12T15:05:52;10.60;;;7.70;;
6987;SDS011;3534;49.960;8.018;2023-03-12T15:08:21;12.67;;;9.07;;
6987;SDS011;3534;49.960;8.018;2023-03-12T15:10:49;14.03;;;10.07;;
6987;SDS011;3534;49.960;8.018;2023-03-12T15:13:18;13.97;;;9.13;;
6987;SDS011;3534;49.960;8.018;2023-03-12T15:15:47;13.60;;;9.13;;
6987;SDS011;3534;49.960;8.018;2023-03-12T15:18:16;13.10;;;9.50;;
6987;SDS011;3534;49.960;8.018;2023-03-12T15:20:45;12.30;;;8.80;;
6987;SDS011;3534;49.960;8.018;2023-03-12T15:23:15;12.50;;;8.30;;
6987;SDS011;3534;49.960;8.018;2023-03-12T15:25:43;17.37;;;9.40;;
6987;SDS011;3534;49.960;8.018;2023-03-12T15:28:24;14.60;;;9.53;;
6987;SDS011;3534;49.960;8.018;2023-03-12T15:31:06;15.93;;;9.83;;
6987;SDS011;3534;49.960;8.018;2023-03-12T15:33:35;17.07;;;10.87;;
6987;SDS011;3534;49.960;8.018;2023-03-12T15:36:04;17.50;;;11.67;;
6987;SDS011;3534;49.960;8.018;2023-03-12T15:38:44;12.93;;;9.30;;
6987;SDS011;3534;49.960;8.018;2023-03-12T15:41:15;13.33;;;9.70;;
6987;SDS011;3534;49.960;8.018;2023-03-12T15:43:45;22.20;;;13.73;;